Time;durP1;ratioP1;P1;durP2;ratioP2;P2;SDS_P1;SDS_P2;PMS_P1;PMS_P2;Temp;Humidity;BMP_temperature;BMP_pressure;BME280_temperature;BME280_humidity;BME280_pressure;Samples;Min_cycle;Max_cycle;Signal;HPM_P1;HPM_P2
2021/07/23 00:01:44;;;;;;;14.35;8.73;;;23.50;84.00;;;;;;4255374;27;20059;-78
2021/07/23 00:03:48;;;;;;;13.38;8.43;;;23.50;84.30;;;;;;4256038;27;20126;-78
2021/07/23 00:06:06;;;;;;;13.90;8.60;;;23.50;83.80;;;;;;4255642;27;20062;-78
2021/07/23 00:08:09;;;;;;;11.95;8.30;;;23.60;84.20;;;;;;4252322;27;20145;-74
2021/07/23 00:10:14;;;;;;;17.17;8.50;;;23.50;84.50;;;;;;4248937;27;20055;-73
2021/07/23 00:12:17;;;;;;;13.73;8.55;;;23.60;83.50;;;;;;4249465;27;20055;-73
2021/07/23 00:14:20;;;;;;;14.10;9.10;;;23.70;83.20;;;;;;4249875;27;20054;-78
2021/07/23 00:16:23;;;;;;;15.70;8.90;;;23.60;84.20;;;;;;4250613;27;20062;-78
2021/07/23 00:18:26;;;;;;;16.38;8.95;;;23.60;84.10;;;;;;4250954;27;20055;-78
2021/07/23 00:20:29;;;;;;;16.23;8.52;;;23.40;85.00;;;;;;4232624;28;20057;-79
2021/07/23 00:22:32;;;;;;;9.98;8.43;;;23.30;86.40;;;;;;4250125;27;20047;-79
2021/07/23 00:24:36;;;;;;;11.88;8.40;;;23.30;86.30;;;;;;4249417;27;20059;-74
2021/07/23 00:26:40;;;;;;;16.73;8.98;;;23.20;86.50;;;;;;4235007;28;20047;-73
2021/07/23 00:28:43;;;;;;;12.95;8.75;;;23.00;87.40;;;;;;4250696;27;20407;-77
2021/07/23 00:30:46;;;;;;;15.32;9.07;;;23.10;87.40;;;;;;4253801;27;20439;-75
2021/07/23 00:32:49;;;;;;;12.00;9.23;;;23.10;87.60;;;;;;4237096;28;20056;-79
2021/07/23 00:34:52;;;;;;;16.60;8.45;;;23.10;87.40;;;;;;4237563;27;20091;-79
2021/07/23 00:36:55;;;;;;;19.23;9.45;;;23.00;88.20;;;;;;4255656;27;20567;-79
2021/07/23 00:38:58;;;;;;;15.57;9.10;;;22.90;88.60;;;;;;4250815;27;20051;-77
2021/07/23 00:41:01;;;;;;;13.63;9.30;;;22.90;89.30;;;;;;4250693;27;20062;-78
2021/07/23 00:43:06;;;;;;;18.45;9.23;;;23.00;88.70;;;;;;4250114;27;20043;-78
2021/07/23 00:45:10;;;;;;;12.43;9.05;;;23.00;88.60;;;;;;4251608;27;20057;-78
2021/07/23 00:47:19;;;;;;;11.38;8.65;;;23.00;88.60;;;;;;4265432;27;20418;-77
2021/07/23 00:49:23;;;;;;;15.02;8.63;;;22.90;89.80;;;;;;4270909;27;20138;-77
2021/07/23 00:51:27;;;;;;;19.23;9.57;;;22.90;89.70;;;;;;4268044;27;20050;-77
2021/07/23 00:53:30;;;;;;;15.30;9.68;;;22.90;89.70;;;;;;4266095;27;20406;-76
2021/07/23 00:55:33;;;;;;;16.30;9.85;;;22.80;90.00;;;;;;4266633;27;20505;-76
2021/07/23 00:57:41;;;;;;;17.70;9.38;;;22.70;90.30;;;;;;4273202;27;20045;-79
2021/07/23 00:59:49;;;;;;;14.85;9.38;;;22.40;91.00;;;;;;4275089;27;20051;-78
2021/07/23 01:01:52;;;;;;;14.70;9.40;;;22.40;91.30;;;;;;4268959;27;20426;-76
2021/07/23 01:03:56;;;;;;;15.18;9.50;;;22.30;91.50;;;;;;4251155;27;20498;-78
2021/07/23 01:06:01;;;;;;;15.77;9.40;;;22.30;91.70;;;;;;4251075;27;20607;-79
2021/07/23 01:08:04;;;;;;;;;;;22.30;91.80;;;;;;4267178;27;20050;-77
2021/07/23 01:10:08;;;;;;;20.23;9.68;;;22.30;91.90;;;;;;4265842;27;19926;-72
2021/07/23 01:12:13;;;;;;;16.20;9.55;;;22.30;91.80;;;;;;4265579;27;20135;-74
2021/07/23 01:14:17;;;;;;;11.70;9.10;;;22.30;91.70;;;;;;4247565;27;20232;-73
2021/07/23 01:16:22;;;;;;;13.90;9.18;;;22.30;91.90;;;;;;4268805;27;20141;-78
2021/07/23 01:18:25;;;;;;;13.77;9.80;;;22.30;91.90;;;;;;4268295;27;20055;-77
2021/07/23 01:20:28;;;;;;;18.83;10.68;;;22.10;92.50;;;;;;4267917;27;20057;-77
2021/07/23 01:22:33;;;;;;;15.95;9.80;;;22.10;92.60;;;;;;4267903;27;20090;-76
2021/07/23 01:24:39;;;;;;;15.25;9.48;;;22.20;92.20;;;;;;4274932;27;20055;-77
2021/07/23 01:26:42;;;;;;;14.93;9.95;;;22.30;92.20;;;;;;4274486;27;20078;-77
2021/07/23 01:28:47;;;;;;;16.48;9.70;;;22.30;92.20;;;;;;4273329;27;20058;-79
2021/07/23 01:30:50;;;;;;;14.90;9.75;;;22.30;92.20;;;;;;4275495;27;20057;-78
2021/07/23 01:32:53;;;;;;;17.20;9.57;;;22.20;92.40;;;;;;4275463;27;20138;-76
2021/07/23 01:34:56;;;;;;;14.52;9.73;;;22.30;92.10;;;;;;4253383;27;20115;-76
2021/07/23 01:36:59;;;;;;;14.95;10.13;;;22.20;92.80;;;;;;4267175;27;20058;-77
2021/07/23 01:39:02;;;;;;;16.08;10.60;;;22.20;92.80;;;;;;4265452;27;20055;-79
2021/07/23 01:41:07;;;;;;;19.27;10.40;;;22.10;93.00;;;;;;4266038;27;20070;-77
2021/07/23 01:43:11;;;;;;;13.40;9.32;;;22.20;92.80;;;;;;4265589;27;20111;-76
2021/07/23 01:45:17;;;;;;;14.63;9.70;;;22.30;92.40;;;;;;4264965;27;20111;-77
2021/07/23 01:47:20;;;;;;;12.98;9.57;;;22.30;92.60;;;;;;4267005;27;20067;-77
2021/07/23 01:49:23;;;;;;;12.32;9.93;;;22.30;92.40;;;;;;4268152;27;20061;-77
2021/07/23 01:51:26;;;;;;;17.55;9.48;;;22.20;92.70;;;;;;4270241;27;20107;-77
2021/07/23 01:53:29;;;;;;;15.02;9.70;;;22.30;92.80;;;;;;4270779;27;20468;-77
2021/07/23 01:55:33;;;;;;;19.63;9.93;;;22.30;92.70;;;;;;4280737;27;20061;-78
2021/07/23 01:57:37;;;;;;;14.15;9.02;;;22.30;92.50;;;;;;4268365;27;20095;-78
2021/07/23 01:59:40;;;;;;;21.15;10.60;;;22.40;92.30;;;;;;4264679;27;20057;-77
2021/07/23 02:01:43;;;;;;;13.13;10.02;;;22.30;92.70;;;;;;4264147;27;20142;-76
2021/07/23 02:03:46;;;;;;;16.17;10.50;;;22.30;92.80;;;;;;4263989;27;20137;-74
2021/07/23 02:05:49;;;;;;;18.75;10.55;;;22.30;92.60;;;;;;4264535;27;20047;-79
2021/07/23 02:07:52;;;;;;;20.95;11.10;;;22.20;92.90;;;;;;4263631;27;20139;-78
2021/07/23 02:09:55;;;;;;;16.13;11.68;;;22.20;92.90;;;;;;4264247;27;20055;-77
2021/07/23 02:11:58;;;;;;;16.45;11.43;;;22.10;93.40;;;;;;4264090;27;20524;-78
2021/07/23 02:14:06;;;;;;;16.90;10.48;;;22.00;93.60;;;;;;4263791;27;20051;-77
2021/07/23 02:16:09;;;;;;;19.92;11.15;;;22.00;93.50;;;;;;4263742;27;20051;-77
2021/07/23 02:18:13;;;;;;;18.73;11.40;;;22.00;93.60;;;;;;4263429;27;20057;-73
2021/07/23 02:20:16;;;;;;;16.80;10.65;;;21.80;94.20;;;;;;4263414;27;20061;-73
2021/07/23 02:22:19;;;;;;;18.27;11.82;;;21.60;94.60;;;;;;4263269;27;20055;-73
2021/07/23 02:24:22;;;;;;;16.45;11.77;;;21.70;94.50;;;;;;4263114;27;20089;-73
2021/07/23 02:26:25;;;;;;;18.48;11.90;;;21.70;94.70;;;;;;4244861;27;20043;-72
2021/07/23 02:28:29;;;;;;;17.73;11.43;;;21.60;94.80;;;;;;4263964;27;20388;-76
2021/07/23 02:30:34;;;;;;;21.27;12.20;;;21.50;94.90;;;;;;4263576;27;20300;-77
2021/07/23 02:32:37;;;;;;;18.02;11.82;;;21.60;95.00;;;;;;4263944;27;20059;-78
2021/07/23 02:34:40;;;;;;;20.85;11.70;;;21.60;94.80;;;;;;4263827;27;20042;-77
2021/07/23 02:36:43;;;;;;;18.30;11.95;;;21.70;94.70;;;;;;4263947;27;20062;-74
2021/07/23 02:38:46;;;;;;;15.63;11.50;;;21.80;94.40;;;;;;4263799;27;20519;-73
2021/07/23 02:40:49;;;;;;;18.98;11.90;;;21.90;94.10;;;;;;4263468;27;20065;-73
2021/07/23 02:42:53;;;;;;;17.67;11.88;;;22.00;94.00;;;;;;4263824;27;20057;-77
2021/07/23 02:44:56;;;;;;;18.05;11.27;;;22.10;93.70;;;;;;4264044;27;20047;-77
2021/07/23 02:47:00;;;;;;;17.48;12.02;;;22.10;93.80;;;;;;4264403;27;20057;-75
2021/07/23 02:49:03;;;;;;;25.10;12.57;;;22.10;93.70;;;;;;4265132;27;20059;-75
2021/07/23 02:51:07;;;;;;;21.83;12.27;;;22.00;94.40;;;;;;4265270;27;20047;-76
2021/07/23 02:53:10;;;;;;;20.25;12.02;;;22.00;94.20;;;;;;4266040;27;20521;-77
2021/07/23 02:55:13;;;;;;;17.40;12.13;;;21.90;94.50;;;;;;4250001;27;20062;-76
2021/07/23 02:57:16;;;;;;;17.38;11.90;;;21.90;94.40;;;;;;4249569;28;20135;-77
2021/07/23 02:59:19;;;;;;;20.17;12.23;;;22.00;94.20;;;;;;4254463;28;20122;-77
2021/07/23 03:01:22;;;;;;;19.98;12.63;;;22.00;94.30;;;;;;4256524;28;20065;-77
2021/07/23 03:03:27;;;;;;;17.15;12.30;;;22.00;94.00;;;;;;4257761;28;20418;-76
2021/07/23 03:05:30;;;;;;;23.17;11.70;;;22.00;94.20;;;;;;4259497;27;20051;-78
2021/07/23 03:07:33;;;;;;;19.83;12.00;;;21.90;94.50;;;;;;4258815;27;20135;-75
2021/07/23 03:09:36;;;;;;;19.52;12.60;;;21.70;94.80;;;;;;4259161;27;20118;-76
2021/07/23 03:11:39;;;;;;;15.93;12.57;;;21.60;95.10;;;;;;4259525;27;20051;-76
2021/07/23 03:13:42;;;;;;;25.35;13.43;;;21.70;94.80;;;;;;4259802;27;20047;-79
2021/07/23 03:15:45;;;;;;;18.08;11.93;;;21.60;95.30;;;;;;4258983;27;20043;-78
2021/07/23 03:17:49;;;;;;;16.02;12.68;;;21.40;95.80;;;;;;4257591;27;20477;-77
2021/07/23 03:19:53;;;;;;;20.73;12.88;;;21.40;95.60;;;;;;4258136;27;20058;-78
2021/07/23 03:21:56;;;;;;;15.95;11.95;;;21.50;95.20;;;;;;4258481;27;20061;-77
2021/07/23 03:23:59;;;;;;;21.85;13.35;;;21.50;95.50;;;;;;4257885;27;20051;-78
2021/07/23 03:26:05;;;;;;;23.35;12.18;;;21.60;95.20;;;;;;4253602;27;20062;-75
2021/07/23 03:28:08;;;;;;;23.73;13.15;;;21.70;95.10;;;;;;4244193;28;20056;-77
2021/07/23 03:30:15;;;;;;;17.80;12.00;;;21.80;94.10;;;;;;4263955;27;20053;-78
2021/07/23 03:32:23;;;;;;;18.80;12.15;;;21.90;94.50;;;;;;4253394;27;20053;-75
2021/07/23 03:34:26;;;;;;;21.20;12.13;;;22.00;94.00;;;;;;4249266;27;20051;-77
2021/07/23 03:36:30;;;;;;;15.20;12.00;;;21.90;94.50;;;;;;4249065;27;20051;-77
2021/07/23 03:38:34;;;;;;;18.17;12.70;;;21.90;94.20;;;;;;4252140;27;20057;-74
2021/07/23 03:40:37;;;;;;;17.77;13.10;;;22.00;94.10;;;;;;4249158;27;20055;-78
2021/07/23 03:42:40;;;;;;;20.17;14.20;;;21.90;94.20;;;;;;4249142;27;20492;-79
2021/07/23 03:44:43;;;;;;;24.20;12.85;;;21.90;94.30;;;;;;4249034;27;20062;-75
2021/07/23 03:46:46;;;;;;;20.60;13.00;;;21.90;94.20;;;;;;4257770;27;20061;-77
2021/07/23 03:48:53;;;;;;;24.38;13.95;;;22.00;93.80;;;;;;4274381;27;20440;-78
2021/07/23 03:50:56;;;;;;;19.73;13.82;;;21.80;94.80;;;;;;4271090;27;20051;-76
2021/07/23 03:53:00;;;;;;;19.17;14.50;;;21.70;94.60;;;;;;4268546;27;20061;-78
2021/07/23 03:55:04;;;;;;;23.80;14.18;;;21.80;94.50;;;;;;4268033;27;20059;-74
2021/07/23 03:57:08;;;;;;;21.50;12.75;;;21.60;95.40;;;;;;4267325;27;20103;-78
2021/07/23 03:59:11;;;;;;;25.25;13.98;;;21.40;95.70;;;;;;4267027;27;20054;-75
2021/07/23 04:01:14;;;;;;;21.58;13.82;;;21.40;95.80;;;;;;4268374;27;20054;-78
2021/07/23 04:03:17;;;;;;;23.27;13.98;;;21.00;96.80;;;;;;4268143;27;20054;-76
2021/07/23 04:05:21;;;;;;;22.40;15.40;;;21.00;97.10;;;;;;4268085;27;20513;-77
2021/07/23 04:07:24;;;;;;;23.95;14.48;;;20.90;97.40;;;;;;4271411;27;20047;-75
2021/07/23 04:09:29;;;;;;;23.70;15.27;;;20.90;97.30;;;;;;4277906;27;20047;-78
2021/07/23 04:11:46;;;;;;;23.98;15.75;;;20.90;97.50;;;;;;4268260;27;20536;-76
2021/07/23 04:13:49;;;;;;;24.77;15.65;;;20.90;97.50;;;;;;4270714;27;20137;-79
2021/07/23 04:15:52;;;;;;;23.92;14.68;;;20.80;97.60;;;;;;4272295;27;20399;-79
2021/07/23 04:17:55;;;;;;;26.00;15.18;;;20.80;97.90;;;;;;4271803;27;20065;-78
2021/07/23 04:19:58;;;;;;;24.65;16.30;;;20.70;98.10;;;;;;4271983;27;20051;-77
2021/07/23 04:22:01;;;;;;;25.38;16.25;;;20.60;98.20;;;;;;4270402;27;20050;-77
2021/07/23 04:24:06;;;;;;;25.20;15.68;;;20.60;98.40;;;;;;4267011;27;20053;-76
2021/07/23 04:26:10;;;;;;;23.80;16.98;;;20.40;98.80;;;;;;4266620;27;20053;-76
2021/07/23 04:28:13;;;;;;;25.80;16.88;;;20.40;98.90;;;;;;4265817;27;20057;-75
2021/07/23 04:30:17;;;;;;;28.60;16.08;;;20.30;99.30;;;;;;4266312;27;20080;-79
2021/07/23 04:32:20;;;;;;;24.42;16.00;;;20.40;99.30;;;;;;4265944;27;20061;-79
2021/07/23 04:34:23;;;;;;;21.48;15.35;;;20.40;99.10;;;;;;4266710;27;20051;-74
2021/07/23 04:36:26;;;;;;;29.73;16.10;;;20.40;99.20;;;;;;4266994;27;20057;-78
2021/07/23 04:38:29;;;;;;;26.63;16.92;;;20.40;99.20;;;;;;4266378;27;20414;-78
2021/07/23 04:40:32;;;;;;;24.15;15.68;;;20.40;99.30;;;;;;4266786;27;20054;-78
2021/07/23 04:42:37;;;;;;;27.40;16.52;;;20.40;99.20;;;;;;4265873;27;20050;-75
2021/07/23 04:44:40;;;;;;;29.85;16.77;;;20.50;99.00;;;;;;4248255;27;20134;-78
2021/07/23 04:46:43;;;;;;;23.58;15.55;;;20.50;98.80;;;;;;4266350;27;20165;-74
2021/07/23 04:48:46;;;;;;;27.08;16.05;;;20.60;98.90;;;;;;4266261;27;20514;-77
2021/07/23 04:50:50;;;;;;;26.60;15.63;;;20.50;99.00;;;;;;4265568;27;20062;-77
2021/07/23 04:52:55;;;;;;;25.95;16.67;;;20.50;98.80;;;;;;4266083;27;20050;-79
2021/07/23 04:55:07;;;;;;;27.70;17.08;;;20.60;99.00;;;;;;4265858;27;20054;-77
2021/07/23 04:57:13;;;;;;;27.05;16.55;;;20.60;98.70;;;;;;4265831;27;20461;-77
2021/07/23 04:59:19;;;;;;;22.90;16.55;;;20.70;98.80;;;;;;4266587;27;20050;-76
2021/07/23 05:01:22;;;;;;;22.88;15.68;;;20.70;98.60;;;;;;4267493;27;20054;-77
2021/07/23 05:03:33;;;;;;;26.55;16.27;;;20.90;98.10;;;;;;4268588;27;20062;-76
2021/07/23 05:05:39;;;;;;;25.42;15.48;;;20.80;98.40;;;;;;4268345;27;20525;-78
2021/07/23 05:07:43;;;;;;;20.88;15.45;;;20.80;98.20;;;;;;4249037;27;20418;-76
2021/07/23 05:09:46;;;;;;;25.52;15.95;;;20.90;98.10;;;;;;4268062;27;20425;-73
2021/07/23 05:11:49;;;;;;;26.02;16.05;;;20.90;98.00;;;;;;4268961;27;20483;-74
2021/07/23 05:13:52;;;;;;;29.05;15.88;;;20.90;97.90;;;;;;4267235;27;20055;-77
2021/07/23 05:15:57;;;;;;;23.73;15.65;;;20.80;98.20;;;;;;4268489;27;20655;-76
2021/07/23 05:18:00;;;;;;;24.60;16.33;;;20.90;98.30;;;;;;4269172;27;20051;-75
2021/07/23 05:20:06;;;;;;;20.95;15.27;;;20.80;98.40;;;;;;4250356;27;20055;-77
2021/07/23 05:22:12;;;;;;;31.67;16.35;;;20.80;98.40;;;;;;4248829;27;20051;-77
2021/07/23 05:24:15;;;;;;;20.33;16.52;;;20.80;98.60;;;;;;4252854;27;20439;-79
2021/07/23 05:26:18;;;;;;;30.70;16.38;;;20.60;98.80;;;;;;4269357;27;20176;-76
2021/07/23 05:28:21;;;;;;;23.75;15.10;;;20.70;98.80;;;;;;4269087;27;20074;-76
2021/07/23 05:30:41;;;;;;;28.60;16.83;;;20.60;98.80;;;;;;4269981;27;20055;-78
2021/07/23 05:32:45;;;;;;;26.17;15.48;;;20.70;98.70;;;;;;4271864;27;20068;-76
2021/07/23 05:34:48;;;;;;;31.70;15.88;;;20.80;98.70;;;;;;4273355;27;20047;-78
2021/07/23 05:36:51;;;;;;;25.83;16.27;;;20.80;98.50;;;;;;4272581;27;20057;-78
2021/07/23 05:38:54;;;;;;;25.08;15.93;;;20.80;98.40;;;;;;4270833;27;20138;-77
2021/07/23 05:41:04;;;;;;;25.08;16.17;;;20.70;98.80;;;;;;4269479;27;20057;-77
2021/07/23 05:43:07;;;;;;;27.60;15.35;;;20.60;99.10;;;;;;4269433;27;20394;-79
2021/07/23 05:45:11;;;;;;;26.20;16.63;;;20.70;98.90;;;;;;4270124;27;20051;-77
2021/07/23 05:47:14;;;;;;;28.10;15.82;;;20.70;98.90;;;;;;4249324;27;20055;-77
2021/07/23 05:49:19;;;;;;;25.08;16.27;;;20.70;98.90;;;;;;4267031;27;20055;-77
2021/07/23 05:51:22;;;;;;;31.30;15.60;;;20.60;99.30;;;;;;4247023;27;20059;-79
2021/07/23 05:53:25;;;;;;;28.40;15.77;;;20.60;99.30;;;;;;4263737;27;20050;-75
2021/07/23 05:55:28;;;;;;;24.80;16.48;;;20.60;99.20;;;;;;4247761;27;20051;-78
2021/07/23 05:57:31;;;;;;;26.63;16.60;;;20.80;98.90;;;;;;4247354;27;20058;-76
2021/07/23 05:59:34;;;;;;;24.17;17.10;;;20.90;99.00;;;;;;4247216;27;20142;-77
2021/07/23 06:01:37;;;;;;;29.00;16.45;;;20.90;98.80;;;;;;4246788;27;20055;-76
2021/07/23 06:03:41;;;;;;;32.08;15.85;;;20.90;99.00;;;;;;4246808;27;20532;-77
2021/07/23 06:05:45;;;;;;;24.77;15.77;;;21.10;98.50;;;;;;4246792;27;20073;-77
2021/07/23 06:07:48;;;;;;;34.75;16.83;;;21.10;98.30;;;;;;4247081;27;20051;-77
2021/07/23 06:09:51;;;;;;;31.55;15.82;;;21.20;98.10;;;;;;4247128;27;20122;-76
2021/07/23 06:11:54;;;;;;;27.52;15.60;;;21.30;97.80;;;;;;4248424;27;20409;-79
2021/07/23 06:13:57;;;;;;;27.17;15.50;;;21.30;97.90;;;;;;4249369;27;20061;-77
2021/07/23 06:16:02;;;;;;;31.52;15.00;;;21.30;97.90;;;;;;4250475;27;20054;-76
2021/07/23 06:18:06;;;;;;;29.15;15.88;;;21.40;97.70;;;;;;4248114;27;20051;-74
2021/07/23 06:20:10;;;;;;;36.58;15.68;;;21.30;97.90;;;;;;4247040;27;20526;-76
2021/07/23 06:22:17;;;;;;;32.85;15.70;;;21.20;98.00;;;;;;4234249;28;20051;-78
2021/07/23 06:24:20;;;;;;;31.30;15.52;;;21.10;98.40;;;;;;4262907;27;20062;-77
2021/07/23 06:26:24;;;;;;;26.45;15.38;;;21.20;98.20;;;;;;4228919;28;20061;-75
2021/07/23 06:28:27;;;;;;;30.65;15.57;;;21.20;98.30;;;;;;4247235;27;20055;-75
2021/07/23 06:30:30;;;;;;;33.42;14.93;;;21.30;97.90;;;;;;4246878;27;20055;-76
2021/07/23 06:32:33;;;;;;;30.50;16.10;;;21.40;97.80;;;;;;4246718;27;20054;-76
2021/07/23 06:34:36;;;;;;;21.85;14.55;;;21.30;97.80;;;;;;4246544;27;20623;-74
2021/07/23 06:36:39;;;;;;;24.70;14.70;;;21.40;97.70;;;;;;4246845;27;20053;-77
2021/07/23 06:38:44;;;;;;;29.98;15.40;;;21.70;97.40;;;;;;4248754;27;20073;-76
2021/07/23 06:40:47;;;;;;;27.92;15.38;;;21.70;97.40;;;;;;4246714;27;20063;-78
2021/07/23 06:42:50;;;;;;;25.15;15.25;;;21.60;97.50;;;;;;4246813;27;20434;-78
2021/07/23 06:44:53;;;;;;;29.15;14.98;;;21.70;97.40;;;;;;4250415;27;20427;-77
2021/07/23 06:46:56;;;;;;;28.75;14.70;;;21.70;97.30;;;;;;4259982;27;20053;-75
2021/07/23 06:48:59;;;;;;;23.65;14.60;;;21.90;97.20;;;;;;4267220;27;20061;-77
2021/07/23 06:51:03;;;;;;;26.52;15.32;;;21.80;97.20;;;;;;4267142;27;20050;-77
2021/07/23 06:53:08;;;;;;;25.73;15.18;;;22.00;97.10;;;;;;4246570;27;20128;-77
2021/07/23 06:55:13;;;;;;;26.70;14.45;;;22.10;96.70;;;;;;4264131;27;20483;-76
2021/07/23 06:57:16;;;;;;;23.40;14.18;;;22.10;96.70;;;;;;4263893;27;20061;-77
2021/07/23 06:59:19;;;;;;;28.33;14.35;;;22.20;96.70;;;;;;4264284;27;20054;-78
2021/07/23 07:01:22;;;;;;;29.60;14.68;;;22.10;96.50;;;;;;4246404;27;20226;-73
2021/07/23 07:03:25;;;;;;;20.17;13.60;;;22.20;96.60;;;;;;4264931;27;20599;-73
2021/07/23 07:05:28;;;;;;;23.92;12.98;;;22.20;96.70;;;;;;4267089;27;20050;-75
2021/07/23 07:07:31;;;;;;;24.48;13.10;;;22.30;96.60;;;;;;4249394;27;20057;-78
2021/07/23 07:09:36;;;;;;;31.50;13.82;;;22.40;96.30;;;;;;4267261;27;20067;-76
2021/07/23 07:11:40;;;;;;;30.67;12.65;;;22.40;96.10;;;;;;4266808;27;20057;-74
2021/07/23 07:13:43;;;;;;;28.55;12.52;;;22.60;96.10;;;;;;4265344;27;20050;-73
2021/07/23 07:15:52;;;;;;;27.02;13.93;;;22.60;95.70;;;;;;4264228;27;20055;-73
2021/07/23 07:17:57;;;;;;;29.35;13.80;;;22.70;95.50;;;;;;4267065;27;20058;-77
2021/07/23 07:20:00;;;;;;;28.10;13.32;;;22.80;95.30;;;;;;4269140;27;20053;-77
2021/07/23 07:22:03;;;;;;;27.25;12.25;;;23.10;94.80;;;;;;4267112;27;20131;-77
2021/07/23 07:24:06;;;;;;;31.33;12.70;;;22.80;94.90;;;;;;4246078;28;20055;-78
2021/07/23 07:26:10;;;;;;;26.02;12.45;;;22.90;95.00;;;;;;4245704;27;20142;-76
2021/07/23 07:28:14;;;;;;;21.23;12.88;;;22.90;95.00;;;;;;4264346;27;20050;-77
2021/07/23 07:30:33;;;;;;;27.02;12.38;;;22.90;95.00;;;;;;4248290;27;20385;-74
2021/07/23 07:32:36;;;;;;;23.17;12.35;;;23.00;94.80;;;;;;4263906;27;20058;-77
2021/07/23 07:34:39;;;;;;;25.60;12.57;;;23.10;94.70;;;;;;4264207;27;20471;-77
2021/07/23 07:36:42;;;;;;;20.92;11.40;;;23.10;94.50;;;;;;4264278;27;20054;-77
2021/07/23 07:38:46;;;;;;;28.35;12.90;;;23.20;94.40;;;;;;4263807;27;20050;-76
2021/07/23 07:40:49;;;;;;;18.98;12.80;;;23.40;94.20;;;;;;4264353;27;20050;-77
2021/07/23 07:42:52;;;;;;;19.83;11.75;;;23.50;94.00;;;;;;4263810;27;20057;-76
2021/07/23 07:44:56;;;;;;;25.15;11.85;;;23.50;93.90;;;;;;4265233;27;20545;-75
2021/07/23 07:46:59;;;;;;;19.98;12.25;;;23.60;93.60;;;;;;4248264;27;20120;-76
2021/07/23 07:49:02;;;;;;;23.13;11.77;;;23.70;93.40;;;;;;4267274;27;20494;-76
2021/07/23 07:51:08;;;;;;;24.27;12.48;;;23.80;93.60;;;;;;4268397;27;20571;-76
2021/07/23 07:53:16;;;;;;;28.42;12.07;;;23.90;93.10;;;;;;4270302;27;20054;-77
2021/07/23 07:55:19;;;;;;;29.75;12.32;;;23.90;93.10;;;;;;4252109;27;20051;-77
2021/07/23 07:57:23;;;;;;;25.02;11.75;;;24.10;93.00;;;;;;4253380;27;20051;-74
2021/07/23 07:59:27;;;;;;;15.13;10.88;;;24.20;92.60;;;;;;4256097;27;20057;-76
2021/07/23 08:01:32;;;;;;;24.48;12.02;;;24.20;92.70;;;;;;4255239;27;20059;-76
2021/07/23 08:03:35;;;;;;;26.70;11.80;;;24.30;92.70;;;;;;4254075;27;20596;-77
2021/07/23 08:05:39;;;;;;;22.02;11.95;;;24.40;92.20;;;;;;4252935;27;20111;-73
2021/07/23 08:07:42;;;;;;;17.23;11.45;;;24.20;92.20;;;;;;4253643;27;20043;-76
2021/07/23 08:09:49;;;;;;;20.08;11.07;;;24.20;92.20;;;;;;4250785;27;20134;-75
2021/07/23 08:11:53;;;;;;;24.27;11.65;;;24.30;92.40;;;;;;4249733;27;20066;-76
2021/07/23 08:13:57;;;;;;;17.53;11.13;;;24.40;92.00;;;;;;4249294;27;20053;-77
2021/07/23 08:16:00;;;;;;;20.73;11.07;;;24.40;91.90;;;;;;4249763;27;20051;-76
2021/07/23 08:18:05;;;;;;;24.95;12.15;;;24.50;91.90;;;;;;4249516;27;20049;-75
2021/07/23 08:20:09;;;;;;;27.08;10.85;;;24.60;91.70;;;;;;4249240;27;20522;-76
2021/07/23 08:22:12;;;;;;;21.95;11.52;;;24.80;91.50;;;;;;4253770;27;20066;-77
2021/07/23 08:24:15;;;;;;;28.35;11.38;;;24.70;91.50;;;;;;4254044;27;20443;-77
2021/07/23 08:26:18;;;;;;;26.02;10.85;;;24.80;91.30;;;;;;4253308;27;20125;-75
2021/07/23 08:28:21;;;;;;;26.10;11.57;;;24.90;91.40;;;;;;4249002;27;20407;-77
2021/07/23 08:30:25;;;;;;;22.35;10.30;;;24.90;91.00;;;;;;4248786;27;20051;-76
2021/07/23 08:32:31;;;;;;;22.10;10.40;;;25.20;91.00;;;;;;4249302;27;20061;-76
2021/07/23 08:34:36;;;;;;;17.40;10.38;;;25.40;90.50;;;;;;4249247;27;20057;-77
2021/07/23 08:36:39;;;;;;;28.63;11.02;;;25.40;90.30;;;;;;4266671;27;20237;-73
2021/07/23 08:38:42;;;;;;;21.60;10.40;;;25.50;89.90;;;;;;4257724;27;20435;-78
2021/07/23 08:40:45;;;;;;;20.52;10.90;;;25.60;89.80;;;;;;4249438;27;20051;-74
2021/07/23 08:42:48;;;;;;;21.90;10.20;;;25.50;88.90;;;;;;4248777;27;20055;-77
2021/07/23 08:44:52;;;;;;;22.20;10.50;;;25.70;88.10;;;;;;4249740;27;20058;-75
2021/07/23 08:46:55;;;;;;;30.87;11.67;;;25.80;87.10;;;;;;4257932;27;20070;-76
2021/07/23 08:48:58;;;;;;;26.67;10.93;;;25.90;86.50;;;;;;4250362;27;20098;-75
2021/07/23 08:51:03;;;;;;;26.75;10.85;;;25.90;86.70;;;;;;4266728;27;20077;-75
2021/07/23 08:53:12;;;;;;;25.55;10.60;;;26.00;86.70;;;;;;4267695;27;20072;-77
2021/07/23 08:55:16;;;;;;;21.33;10.70;;;26.00;87.30;;;;;;4268584;27;20406;-76
2021/07/23 08:57:19;;;;;;;26.83;10.38;;;26.20;87.10;;;;;;4268841;27;20072;-75
2021/07/23 08:59:22;;;;;;;29.40;11.38;;;26.20;86.30;;;;;;4268808;27;20051;-73
2021/07/23 09:01:25;;;;;;;22.98;10.23;;;26.30;85.50;;;;;;4266980;27;20067;-74
2021/07/23 09:03:29;;;;;;;22.77;10.23;;;26.40;84.30;;;;;;4267420;27;20441;-73
2021/07/23 09:05:34;;;;;;;19.23;10.32;;;26.30;84.50;;;;;;4269563;27;20058;-73
2021/07/23 09:07:38;;;;;;;18.55;9.95;;;26.30;84.20;;;;;;4270409;27;20469;-78
2021/07/23 09:09:41;;;;;;;28.50;9.73;;;26.30;84.40;;;;;;4269337;27;20445;-74
2021/07/23 09:11:58;;;;;;;22.58;10.65;;;26.30;83.30;;;;;;4272154;27;20133;-74
2021/07/23 09:14:11;;;;;;;19.73;10.35;;;26.30;83.50;;;;;;4274807;27;20054;-74
2021/07/23 09:16:24;;;;;;;18.65;10.43;;;26.50;83.30;;;;;;4256740;27;20482;-77
2021/07/23 09:18:31;;;;;;;21.05;10.15;;;26.50;82.30;;;;;;4256030;27;20051;-76
2021/07/23 09:20:36;;;;;;;21.02;9.73;;;26.50;82.80;;;;;;4269242;27;20102;-77
2021/07/23 09:22:45;;;;;;;27.38;9.68;;;26.60;83.00;;;;;;4267430;27;20372;-78
2021/07/23 09:24:52;;;;;;;26.10;9.57;;;26.70;82.20;;;;;;4265686;27;20490;-75
2021/07/23 09:26:55;;;;;;;15.55;9.73;;;26.70;81.90;;;;;;4267086;27;20046;-76
2021/07/23 09:28:58;;;;;;;22.95;10.15;;;26.70;81.90;;;;;;4271906;27;20046;-77
2021/07/23 09:31:03;;;;;;;22.90;9.82;;;26.80;82.00;;;;;;4271181;27;20051;-76
2021/07/23 09:33:06;;;;;;;15.65;10.02;;;27.00;82.30;;;;;;4269611;27;20051;-76
2021/07/23 09:35:11;;;;;;;25.40;9.77;;;27.10;81.70;;;;;;4265458;27;20053;-77
2021/07/23 09:37:14;;;;;;;17.88;9.15;;;27.20;80.80;;;;;;4265125;27;20510;-75
2021/07/23 09:39:33;;;;;;;25.30;9.82;;;27.10;79.70;;;;;;4264989;27;20057;-76
2021/07/23 09:41:36;;;;;;;15.02;10.13;;;27.00;79.90;;;;;;4265542;27;20445;-77
2021/07/23 09:43:41;;;;;;;15.63;9.23;;;27.20;80.50;;;;;;4264916;27;20065;-76
2021/07/23 09:45:44;;;;;;;17.58;10.07;;;27.20;80.00;;;;;;4265530;27;20647;-74
2021/07/23 09:47:47;;;;;;;17.88;9.63;;;27.30;78.90;;;;;;4267005;27;20051;-76
2021/07/23 09:49:51;;;;;;;18.88;10.13;;;27.30;78.80;;;;;;4268711;27;20133;-77
2021/07/23 09:51:55;;;;;;;18.25;9.65;;;27.60;80.00;;;;;;4271738;27;20046;-75
2021/07/23 09:53:58;;;;;;;17.55;9.82;;;27.70;78.30;;;;;;4253734;27;20055;-77
2021/07/23 09:56:05;;;;;;;17.73;10.27;;;27.60;77.80;;;;;;4272203;27;20073;-74
2021/07/23 09:58:08;;;;;;;23.50;9.85;;;27.70;77.20;;;;;;4273752;27;20051;-76
2021/07/23 10:00:13;;;;;;;14.35;8.95;;;27.60;76.50;;;;;;4278068;27;20047;-76
2021/07/23 10:02:19;;;;;;;18.42;9.45;;;27.70;77.10;;;;;;4279677;27;20126;-77
2021/07/23 10:04:31;;;;;;;17.65;9.45;;;27.90;77.80;;;;;;4279560;27;20050;-74
2021/07/23 10:06:36;;;;;;;13.98;8.50;;;27.90;76.80;;;;;;4278179;27;20041;-75
2021/07/23 10:08:40;;;;;;;24.35;9.00;;;27.90;76.80;;;;;;4277516;27;20657;-75
2021/07/23 10:10:46;;;;;;;18.92;9.38;;;28.00;76.50;;;;;;4276282;27;20043;-75
2021/07/23 10:12:53;;;;;;;18.73;9.02;;;28.20;76.20;;;;;;4272738;27;20119;-75
2021/07/23 10:14:57;;;;;;;12.68;9.45;;;28.20;75.20;;;;;;4278419;27;20069;-76
2021/07/23 10:17:00;;;;;;;13.13;10.45;;;28.20;75.10;;;;;;4278574;27;20055;-77
2021/07/23 10:19:06;;;;;;;14.68;9.40;;;28.10;75.10;;;;;;4279928;27;20106;-77
2021/07/23 10:21:09;;;;;;;14.80;9.43;;;28.20;75.70;;;;;;4281412;27;20126;-79
2021/07/23 10:23:17;;;;;;;12.70;8.65;;;28.30;74.50;;;;;;4276960;27;20061;-73
2021/07/23 10:25:22;;;;;;;16.10;9.23;;;28.30;72.30;;;;;;4267164;27;20502;-75
2021/07/23 10:27:26;;;;;;;14.77;9.13;;;28.40;73.30;;;;;;4268230;27;20078;-73
2021/07/23 10:29:44;;;;;;;18.50;9.02;;;28.20;71.50;;;;;;4267313;27;20137;-74
2021/07/23 10:31:47;;;;;;;16.63;8.38;;;28.50;70.10;;;;;;4265182;27;20475;-73
2021/07/23 10:33:52;;;;;;;14.63;8.98;;;28.70;71.00;;;;;;4265540;27;20054;-75